createdAt,value
2023-05-15T00:01:19.919Z,13.60
2023-05-15T00:03:46.666Z,13.60
2023-05-15T00:06:13.339Z,13.20
2023-05-15T00:08:40.537Z,13.00
2023-05-15T00:11:07.121Z,13.20
2023-05-15T00:13:34.304Z,13.30
2023-05-15T00:16:00.954Z,13.30
2023-05-15T00:18:27.671Z,13.50
2023-05-15T00:20:54.552Z,13.60
2023-05-15T00:23:21.116Z,13.70
2023-05-15T00:25:47.698Z,13.80
2023-05-15T00:28:14.295Z,13.90
2023-05-15T00:30:40.885Z,13.80
2023-05-15T00:33:07.482Z,13.70
2023-05-15T00:35:34.043Z,13.70
2023-05-15T00:38:01.312Z,13.50
2023-05-15T00:40:27.925Z,13.40
2023-05-15T00:42:54.507Z,13.60
2023-05-15T00:45:21.077Z,13.50
2023-05-15T00:47:47.721Z,13.80
2023-05-15T00:50:14.309Z,13.90
2023-05-15T00:52:40.898Z,13.80
2023-05-15T00:55:07.502Z,13.80
2023-05-15T00:57:34.097Z,13.60
2023-05-15T01:00:00.669Z,13.70
2023-05-15T01:02:27.325Z,13.80
2023-05-15T01:04:54.314Z,13.80
2023-05-15T01:07:23.246Z,13.90
2023-05-15T01:09:49.905Z,13.80
2023-05-15T01:12:16.475Z,13.70
2023-05-15T01:14:43.830Z,13.70
2023-05-15T01:17:10.391Z,13.50
2023-05-15T01:19:37.190Z,13.70
2023-05-15T01:22:03.845Z,13.70
2023-05-15T01:24:30.433Z,13.80
2023-05-15T01:26:57.075Z,13.80
2023-05-15T01:29:23.641Z,13.70
2023-05-15T01:31:50.342Z,13.80
2023-05-15T01:34:16.975Z,13.70
2023-05-15T01:36:43.572Z,13.60
2023-05-15T01:39:10.154Z,13.40
2023-05-15T01:41:36.755Z,13.10
2023-05-15T01:44:03.641Z,12.70
2023-05-15T01:46:31.207Z,12.50
2023-05-15T01:48:58.052Z,12.40
2023-05-15T01:51:24.623Z,12.40
2023-05-15T01:53:51.238Z,12.50
2023-05-15T01:56:17.799Z,13.00
2023-05-15T01:58:44.404Z,13.30
2023-05-15T02:01:11.616Z,13.50
2023-05-15T02:03:38.277Z,13.60
2023-05-15T02:06:04.967Z,13.70
2023-05-15T02:08:31.519Z,13.60
2023-05-15T02:10:58.084Z,13.30
2023-05-15T02:13:24.679Z,13.40
2023-05-15T02:15:51.349Z,13.50
2023-05-15T02:18:17.950Z,13.40
2023-05-15T02:20:44.561Z,13.30
2023-05-15T02:23:11.140Z,12.90
2023-05-15T02:25:37.735Z,12.80
2023-05-15T02:28:04.298Z,13.00
2023-05-15T02:30:30.870Z,12.80
2023-05-15T02:32:57.530Z,12.90
2023-05-15T02:35:26.818Z,13.00
2023-05-15T02:37:53.659Z,13.20
2023-05-15T02:40:20.209Z,13.20
2023-05-15T02:42:46.788Z,13.10
2023-05-15T02:45:13.336Z,13.00
2023-05-15T02:47:39.999Z,12.80
2023-05-15T02:50:06.593Z,12.70
2023-05-15T02:52:33.161Z,12.70
2023-05-15T02:54:59.742Z,12.70
2023-05-15T02:57:26.296Z,12.40
2023-05-15T02:59:52.885Z,12.60
2023-05-15T03:02:20.153Z,12.50
2023-05-15T03:04:48.040Z,12.60
2023-05-15T03:07:15.130Z,12.60
2023-05-15T03:09:42.652Z,12.50
2023-05-15T03:12:09.234Z,12.40
2023-05-15T03:14:35.804Z,12.40
2023-05-15T03:17:02.609Z,12.40
2023-05-15T03:19:29.209Z,12.30
2023-05-15T03:21:55.798Z,11.80
2023-05-15T03:24:22.388Z,11.80
2023-05-15T03:26:48.941Z,11.80
2023-05-15T03:29:15.522Z,11.80
2023-05-15T03:31:42.127Z,12.10
2023-05-15T03:34:08.718Z,11.90
2023-05-15T03:36:35.299Z,12.00
2023-05-15T03:39:01.870Z,11.90
2023-05-15T03:41:28.444Z,12.00
2023-05-15T03:43:55.001Z,11.80
2023-05-15T03:46:21.623Z,11.80
2023-05-15T03:48:48.238Z,11.90
2023-05-15T03:51:14.805Z,11.70
2023-05-15T03:53:43.709Z,11.60
2023-05-15T03:56:10.360Z,11.90
2023-05-15T03:58:37.035Z,11.80
2023-05-15T04:01:03.644Z,11.80
2023-05-15T04:03:30.252Z,12.00
2023-05-15T04:05:56.946Z,12.20
2023-05-15T04:08:23.523Z,12.00
2023-05-15T04:10:50.799Z,11.70
2023-05-15T04:13:17.369Z,11.50
2023-05-15T04:15:43.996Z,11.40
2023-05-15T04:18:10.554Z,11.50
2023-05-15T04:20:37.147Z,11.60
2023-05-15T04:23:03.710Z,11.50
2023-05-15T04:25:30.305Z,11.60
2023-05-15T04:27:57.078Z,11.60
2023-05-15T04:30:24.204Z,11.90
2023-05-15T04:32:50.897Z,11.90
2023-05-15T04:35:17.516Z,11.80
2023-05-15T04:37:46.189Z,12.00
2023-05-15T04:40:12.782Z,11.90
2023-05-15T04:42:39.758Z,12.20
2023-05-15T04:45:06.455Z,12.40
2023-05-15T04:47:33.125Z,12.80
2023-05-15T04:49:59.707Z,13.10
2023-05-15T04:52:26.293Z,13.20
2023-05-15T04:54:52.908Z,13.20
2023-05-15T04:57:19.758Z,13.40
2023-05-15T04:59:46.342Z,13.60
2023-05-15T05:02:12.895Z,13.50
2023-05-15T05:04:40.221Z,13.50
2023-05-15T05:07:06.790Z,13.60
2023-05-15T05:09:34.545Z,13.00
2023-05-15T05:12:01.148Z,13.30
2023-05-15T05:14:27.734Z,13.60
2023-05-15T05:16:54.324Z,13.90
2023-05-15T05:19:21.824Z,14.10
2023-05-15T05:21:48.590Z,14.20
2023-05-15T05:24:15.247Z,14.30
2023-05-15T05:26:41.865Z,14.40
2023-05-15T05:29:08.425Z,14.60
2023-05-15T05:31:35.063Z,14.60
2023-05-15T05:34:03.869Z,14.90
2023-05-15T05:36:30.512Z,14.70
2023-05-15T05:38:58.690Z,14.00
2023-05-15T05:41:25.281Z,14.40
2023-05-15T05:43:52.066Z,14.50
2023-05-15T05:46:18.742Z,14.80
2023-05-15T05:48:45.374Z,14.40
2023-05-15T05:51:11.930Z,15.00
2023-05-15T05:53:39.575Z,14.90
2023-05-15T05:56:06.263Z,14.70
2023-05-15T05:58:32.817Z,14.70
2023-05-15T06:00:59.402Z,15.30
2023-05-15T06:03:26.277Z,15.80
2023-05-15T06:05:52.926Z,15.80
2023-05-15T06:08:19.543Z,15.70
2023-05-15T06:10:46.142Z,15.10
2023-05-15T06:13:13.035Z,14.60
2023-05-15T06:15:42.668Z,14.80
2023-05-15T06:18:09.297Z,14.80
2023-05-15T06:20:35.923Z,15.40
2023-05-15T06:23:02.520Z,15.00
2023-05-15T06:25:29.112Z,14.80
2023-05-15T06:27:55.718Z,15.20
2023-05-15T06:30:23.264Z,14.90
2023-05-15T06:32:49.967Z,15.30
2023-05-15T06:35:16.610Z,15.50
2023-05-15T06:37:43.614Z,15.80
2023-05-15T06:40:10.188Z,16.10
2023-05-15T06:42:36.795Z,16.70
2023-05-15T06:45:03.395Z,16.90
2023-05-15T06:47:30.065Z,16.80
2023-05-15T06:49:56.673Z,17.10
2023-05-15T06:52:23.271Z,17.50
2023-05-15T06:54:49.873Z,17.90
2023-05-15T06:57:16.457Z,18.10
2023-05-15T06:59:43.017Z,17.20
2023-05-15T07:02:09.659Z,17.40
2023-05-15T07:04:36.326Z,17.80
2023-05-15T07:07:02.954Z,17.70
2023-05-15T07:09:29.678Z,17.30
2023-05-15T07:11:56.266Z,17.10
2023-05-15T07:14:22.865Z,17.50
2023-05-15T07:16:49.537Z,16.50
2023-05-15T07:19:16.205Z,17.30
2023-05-15T07:21:42.791Z,17.50
2023-05-15T07:24:09.366Z,17.30
2023-05-15T07:26:43.863Z,17.80
2023-05-15T07:29:17.171Z,18.00
2023-05-15T07:31:43.769Z,17.30
2023-05-15T07:34:10.880Z,17.40
2023-05-15T07:36:37.530Z,17.60
2023-05-15T07:39:04.105Z,17.50
2023-05-15T07:41:30.788Z,17.60
2023-05-15T07:43:57.678Z,17.60
2023-05-15T07:46:24.339Z,17.50
2023-05-15T07:48:51.050Z,17.50
2023-05-15T07:51:17.654Z,17.70
2023-05-15T07:53:44.238Z,17.40
2023-05-15T07:56:10.828Z,17.80
2023-05-15T07:58:37.387Z,18.10
2023-05-15T08:01:04.290Z,18.00
2023-05-15T08:03:31.005Z,17.40
2023-05-15T08:05:57.638Z,17.80
2023-05-15T08:08:24.214Z,18.20
2023-05-15T08:10:50.772Z,18.00
2023-05-15T08:13:17.356Z,17.80
2023-05-15T08:15:43.987Z,17.60
2023-05-15T08:18:10.770Z,17.30
2023-05-15T08:20:37.342Z,17.30
2023-05-15T08:23:03.880Z,17.90
2023-05-15T08:25:30.713Z,18.40
2023-05-15T08:27:57.472Z,18.60
2023-05-15T08:30:24.069Z,18.60
2023-05-15T08:32:50.889Z,18.50
2023-05-15T08:35:17.498Z,18.50
2023-05-15T08:37:45.380Z,18.80
2023-05-15T08:40:11.964Z,18.80
2023-05-15T08:42:38.567Z,18.80
2023-05-15T08:45:05.189Z,18.90
2023-05-15T08:47:31.814Z,19.10
2023-05-15T08:49:58.438Z,19.10
2023-05-15T08:52:24.998Z,19.50
2023-05-15T08:54:51.572Z,19.10
2023-05-15T08:57:18.178Z,19.30
2023-05-15T08:59:44.760Z,18.90
2023-05-15T09:02:11.385Z,18.80
2023-05-15T09:04:38.985Z,19.10
2023-05-15T09:07:06.029Z,19.40
2023-05-15T09:09:32.610Z,19.40
2023-05-15T09:11:59.185Z,19.70
2023-05-15T09:14:26.097Z,20.00
2023-05-15T09:16:52.743Z,20.40
2023-05-15T09:19:20.927Z,20.70
2023-05-15T09:21:48.017Z,20.60
2023-05-15T09:24:14.663Z,21.00
2023-05-15T09:26:41.270Z,21.10
2023-05-15T09:29:07.836Z,20.70
2023-05-15T09:31:34.788Z,21.20
2023-05-15T09:34:01.713Z,21.60
2023-05-15T09:36:28.322Z,21.10
2023-05-15T09:38:54.955Z,20.90
2023-05-15T09:41:21.650Z,20.60
2023-05-15T09:43:48.214Z,20.20
2023-05-15T09:46:15.176Z,20.20
2023-05-15T09:48:41.795Z,19.90
2023-05-15T09:51:08.414Z,20.00
2023-05-15T09:53:35.009Z,20.40
2023-05-15T09:56:01.742Z,20.70
2023-05-15T09:58:28.346Z,20.50
2023-05-15T10:00:56.175Z,20.30
2023-05-15T10:03:22.736Z,20.70
2023-05-15T10:05:49.478Z,20.50
2023-05-15T10:08:16.723Z,20.90
2023-05-15T10:10:43.359Z,20.80
2023-05-15T10:13:09.986Z,20.90
2023-05-15T10:15:36.558Z,20.90
2023-05-15T10:18:03.198Z,21.10
2023-05-15T10:20:29.807Z,21.60
2023-05-15T10:22:56.425Z,22.00
2023-05-15T10:25:23.013Z,21.90
2023-05-15T10:27:49.590Z,21.80
2023-05-15T10:30:16.212Z,21.50
2023-05-15T10:32:42.916Z,20.80
2023-05-15T10:35:09.512Z,20.60
2023-05-15T10:37:36.083Z,20.60
2023-05-15T10:40:02.832Z,20.60
2023-05-15T10:42:29.405Z,20.90
2023-05-15T10:44:55.966Z,21.30
2023-05-15T10:47:22.625Z,21.90
2023-05-15T10:49:49.227Z,22.10
2023-05-15T10:52:15.801Z,21.50
2023-05-15T10:54:42.380Z,21.80
2023-05-15T10:57:09.682Z,22.10
2023-05-15T10:59:36.265Z,22.10
2023-05-15T11:02:02.840Z,22.50
2023-05-15T11:04:29.447Z,22.40
2023-05-15T11:06:56.051Z,22.60
2023-05-15T11:09:27.160Z,22.70
2023-05-15T11:11:54.418Z,22.80
2023-05-15T11:14:20.995Z,22.70
2023-05-15T11:16:47.585Z,23.20
2023-05-15T11:19:14.523Z,23.40
2023-05-15T11:21:41.191Z,23.40
2023-05-15T11:24:07.765Z,23.90
2023-05-15T11:26:34.367Z,23.70
2023-05-15T11:29:00.964Z,23.40
2023-05-15T11:31:27.602Z,22.90
2023-05-15T11:33:54.191Z,22.40
2023-05-15T11:36:21.037Z,22.60
2023-05-15T11:38:47.594Z,22.80
2023-05-15T11:41:14.183Z,23.30
2023-05-15T11:43:40.798Z,23.40
2023-05-15T11:46:07.530Z,23.40
2023-05-15T11:48:34.215Z,23.80
2023-05-15T11:51:00.821Z,23.80
2023-05-15T11:53:27.929Z,23.50
2023-05-15T11:55:54.604Z,23.90
2023-05-15T11:58:21.237Z,23.80
2023-05-15T12:00:47.835Z,24.00
2023-05-15T12:03:14.462Z,24.00
2023-05-15T12:05:50.303Z,24.10
2023-05-15T12:08:24.552Z,24.20
2023-05-15T12:10:51.154Z,24.40
2023-05-15T12:13:17.700Z,24.30
2023-05-15T12:15:44.404Z,24.50
2023-05-15T12:18:12.120Z,24.60
2023-05-15T12:20:38.706Z,24.50
2023-05-15T12:23:05.294Z,24.80
2023-05-15T12:25:31.931Z,24.50
2023-05-15T12:27:58.525Z,24.60
2023-05-15T12:30:25.207Z,24.20
2023-05-15T12:32:52.037Z,24.10
2023-05-15T12:35:18.668Z,24.00
2023-05-15T12:37:45.266Z,23.90
2023-05-15T12:40:11.963Z,23.80
2023-05-15T12:42:38.750Z,23.80
2023-05-15T12:45:05.306Z,24.20
2023-05-15T12:47:31.926Z,24.00
2023-05-15T12:49:59.039Z,23.80
2023-05-15T12:52:25.863Z,24.30
2023-05-15T12:54:52.482Z,24.70
2023-05-15T12:57:19.034Z,24.10
2023-05-15T12:59:45.628Z,24.00
2023-05-15T13:02:12.208Z,24.30
2023-05-15T13:04:38.771Z,24.60
2023-05-15T13:07:05.600Z,24.70
2023-05-15T13:09:33.551Z,23.70
2023-05-15T13:12:00.145Z,23.00
2023-05-15T13:14:26.753Z,22.60
2023-05-15T13:16:53.345Z,22.90
2023-05-15T13:19:19.969Z,23.20
2023-05-15T13:21:46.626Z,23.70
2023-05-15T13:24:13.172Z,23.90
2023-05-15T13:26:40.105Z,23.80
2023-05-15T13:29:06.710Z,23.30
2023-05-15T13:31:33.344Z,23.60
2023-05-15T13:33:59.994Z,23.60
2023-05-15T13:36:26.667Z,23.90
2023-05-15T13:38:53.863Z,24.30
2023-05-15T13:41:20.463Z,24.40
2023-05-15T13:43:47.045Z,23.80
2023-05-15T13:46:13.818Z,24.00
2023-05-15T13:48:40.480Z,24.20
2023-05-15T13:51:07.058Z,24.30
2023-05-15T13:53:33.667Z,24.30
2023-05-15T13:56:00.285Z,24.80
2023-05-15T13:58:26.939Z,24.40
2023-05-15T14:00:53.575Z,24.50
2023-05-15T14:03:20.314Z,24.90
2023-05-15T14:05:47.221Z,24.80
2023-05-15T14:08:13.825Z,24.50
2023-05-15T14:10:40.385Z,24.50
2023-05-15T14:13:06.969Z,25.10
2023-05-15T14:15:33.545Z,25.10
2023-05-15T14:18:00.215Z,25.20
2023-05-15T14:20:27.123Z,24.90
2023-05-15T14:22:53.846Z,24.40
2023-05-15T14:25:20.448Z,24.10
2023-05-15T14:27:47.011Z,24.10
2023-05-15T14:30:13.623Z,24.10
2023-05-15T14:32:40.234Z,24.10
2023-05-15T14:35:06.824Z,24.10
2023-05-15T14:37:33.435Z,23.80
2023-05-15T14:40:00.003Z,23.70
2023-05-15T14:42:26.638Z,23.30
2023-05-15T14:44:53.293Z,23.40
2023-05-15T14:47:19.875Z,23.00
2023-05-15T14:49:46.428Z,22.90
2023-05-15T14:52:13.059Z,22.70
2023-05-15T14:54:40.220Z,22.60
2023-05-15T14:57:06.896Z,22.70
2023-05-15T14:59:33.587Z,23.00
2023-05-15T15:02:00.340Z,23.00
2023-05-15T15:04:27.083Z,23.70
2023-05-15T15:06:53.801Z,24.00
2023-05-15T15:09:21.434Z,24.60
2023-05-15T15:11:48.313Z,24.50
2023-05-15T15:14:14.898Z,24.30
2023-05-15T15:16:41.668Z,24.10
2023-05-15T15:19:08.358Z,24.30
2023-05-15T15:21:35.107Z,24.30
2023-05-15T15:24:01.895Z,24.40
2023-05-15T15:26:28.509Z,24.20
2023-05-15T15:28:55.083Z,24.70
2023-05-15T15:31:21.753Z,24.50
2023-05-15T15:33:49.667Z,24.20
2023-05-15T15:36:16.389Z,24.00
2023-05-15T15:38:42.946Z,23.80
2023-05-15T15:41:09.528Z,23.50
2023-05-15T15:43:36.128Z,23.80
2023-05-15T15:46:02.868Z,23.40
2023-05-15T15:48:29.603Z,23.40
2023-05-15T15:50:56.223Z,23.60
2023-05-15T15:53:24.104Z,23.50
2023-05-15T15:55:50.735Z,23.50
2023-05-15T15:58:17.354Z,23.40
2023-05-15T16:00:43.909Z,23.20
2023-05-15T16:03:10.579Z,22.70
2023-05-15T16:05:37.254Z,22.80
2023-05-15T16:08:03.829Z,23.10
2023-05-15T16:10:31.071Z,23.20
2023-05-15T16:12:57.781Z,22.40
2023-05-15T16:15:35.493Z,22.30
2023-05-15T16:18:02.309Z,22.30
2023-05-15T16:20:34.926Z,22.10
2023-05-15T16:23:03.235Z,21.80
2023-05-15T16:25:29.831Z,22.00
2023-05-15T16:27:56.397Z,22.20
2023-05-15T16:30:28.228Z,22.30
2023-05-15T16:33:00.637Z,22.60
2023-05-15T16:35:27.289Z,22.70
2023-05-15T16:37:53.862Z,22.80
2023-05-15T16:40:20.445Z,22.90
2023-05-15T16:42:47.083Z,23.10
2023-05-15T16:45:13.652Z,23.10
2023-05-15T16:47:40.274Z,22.90
2023-05-15T16:50:06.854Z,23.10
2023-05-15T16:52:33.442Z,23.00
2023-05-15T16:55:00.052Z,22.50
2023-05-15T16:57:26.654Z,22.80
2023-05-15T16:59:53.357Z,22.90
2023-05-15T17:02:19.962Z,23.20
2023-05-15T17:04:46.580Z,23.60
2023-05-15T17:07:13.202Z,24.20
2023-05-15T17:09:39.852Z,23.90
2023-05-15T17:12:06.519Z,23.10
2023-05-15T17:14:33.290Z,22.90
2023-05-15T17:16:59.957Z,22.10
2023-05-15T17:19:26.526Z,22.00
2023-05-15T17:21:53.181Z,21.90
2023-05-15T17:24:19.759Z,21.60
2023-05-15T17:26:46.413Z,21.50
2023-05-15T17:29:13.006Z,21.70
2023-05-15T17:31:39.616Z,21.70
2023-05-15T17:34:06.233Z,21.60
2023-05-15T17:36:32.962Z,21.50
2023-05-15T17:38:59.844Z,21.50
2023-05-15T17:41:26.469Z,21.40
2023-05-15T17:43:53.056Z,21.50
2023-05-15T17:46:20.101Z,21.60
2023-05-15T17:48:46.758Z,21.70
2023-05-15T17:51:13.324Z,21.80
2023-05-15T17:53:39.914Z,21.50
2023-05-15T17:56:06.525Z,20.90
2023-05-15T17:58:33.076Z,20.90
2023-05-15T18:00:59.669Z,20.90
2023-05-15T18:03:26.305Z,20.80
2023-05-15T18:05:53.057Z,21.00
2023-05-15T18:08:19.723Z,20.60
2023-05-15T18:10:46.296Z,20.50
2023-05-15T18:13:12.890Z,20.60
2023-05-15T18:15:39.520Z,20.40
2023-05-15T18:18:06.226Z,20.00
2023-05-15T18:20:32.867Z,19.60
2023-05-15T18:22:59.464Z,19.60
2023-05-15T18:25:26.708Z,19.90
2023-05-15T18:27:53.584Z,20.10
2023-05-15T18:30:20.177Z,20.20
2023-05-15T18:32:46.785Z,20.10
2023-05-15T18:35:13.379Z,20.10
2023-05-15T18:37:39.943Z,20.10
2023-05-15T18:40:06.522Z,20.00
2023-05-15T18:42:33.334Z,19.90
2023-05-15T18:45:00.135Z,19.70
2023-05-15T18:47:26.786Z,19.60
2023-05-15T18:49:53.374Z,19.40
2023-05-15T18:52:20.171Z,19.20
2023-05-15T18:54:46.740Z,19.10
2023-05-15T18:57:13.317Z,18.60
2023-05-15T18:59:39.907Z,18.60
2023-05-15T19:02:06.487Z,18.80
2023-05-15T19:04:33.395Z,18.90
2023-05-15T19:06:59.952Z,18.70
2023-05-15T19:09:26.572Z,18.50
2023-05-15T19:11:53.124Z,18.40
2023-05-15T19:14:19.708Z,17.90
2023-05-15T19:16:46.401Z,18.10
2023-05-15T19:19:13.149Z,18.10
2023-05-15T19:21:42.083Z,18.10
2023-05-15T19:24:08.690Z,18.10
2023-05-15T19:26:35.261Z,18.20
2023-05-15T19:29:01.859Z,18.30
2023-05-15T19:31:32.031Z,18.30
2023-05-15T19:33:58.950Z,18.20
2023-05-15T19:36:25.526Z,18.10
2023-05-15T19:38:52.079Z,17.70
2023-05-15T19:41:18.761Z,17.70
2023-05-15T19:43:45.521Z,17.70
2023-05-15T19:46:12.517Z,17.60
2023-05-15T19:48:39.113Z,17.30
2023-05-15T19:51:05.715Z,16.60
2023-05-15T19:53:32.310Z,16.80
2023-05-15T19:55:58.873Z,16.80
2023-05-15T19:58:25.461Z,16.80
2023-05-15T20:00:52.258Z,16.60
2023-05-15T20:03:18.939Z,16.80
2023-05-15T20:05:45.528Z,16.90
2023-05-15T20:08:12.127Z,16.90
2023-05-15T20:10:38.832Z,16.70
2023-05-15T20:13:05.617Z,16.30
2023-05-15T20:15:32.274Z,15.90
2023-05-15T20:17:58.893Z,15.90
2023-05-15T20:20:27.850Z,16.30
2023-05-15T20:22:54.601Z,16.60
2023-05-15T20:25:22.926Z,16.80
2023-05-15T20:27:50.750Z,16.60
2023-05-15T20:30:17.611Z,16.50
2023-05-15T20:32:44.358Z,16.60
2023-05-15T20:35:10.988Z,16.60
2023-05-15T20:37:37.566Z,16.60
2023-05-15T20:40:04.688Z,16.60
2023-05-15T20:42:31.244Z,16.50
2023-05-15T20:44:57.835Z,16.60
2023-05-15T20:47:24.474Z,16.20
2023-05-15T20:49:52.533Z,16.20
2023-05-15T20:52:19.131Z,16.30
2023-05-15T20:54:48.570Z,15.80
2023-05-15T20:57:15.141Z,16.10
2023-05-15T20:59:41.731Z,16.00
2023-05-15T21:02:08.286Z,15.90
2023-05-15T21:04:34.866Z,16.10
2023-05-15T21:07:01.431Z,16.00
2023-05-15T21:09:28.318Z,15.40
2023-05-15T21:11:54.891Z,15.50
2023-05-15T21:14:21.726Z,15.90
2023-05-15T21:16:48.345Z,16.10
2023-05-15T21:19:15.062Z,16.20
2023-05-15T21:21:42.007Z,16.10
2023-05-15T21:24:08.578Z,16.10
2023-05-15T21:26:35.166Z,16.00
2023-05-15T21:29:01.718Z,15.90
2023-05-15T21:31:29.078Z,16.00
2023-05-15T21:33:55.770Z,15.30
2023-05-15T21:36:22.322Z,15.50
2023-05-15T21:38:49.028Z,15.10
2023-05-15T21:41:15.617Z,15.40
2023-05-15T21:43:42.191Z,15.60
2023-05-15T21:46:08.880Z,15.70
2023-05-15T21:48:35.560Z,15.80
2023-05-15T21:51:02.191Z,15.90
2023-05-15T21:53:28.768Z,16.00
2023-05-15T21:55:55.349Z,15.80
2023-05-15T21:58:22.245Z,15.60
2023-05-15T22:00:48.802Z,15.60
2023-05-15T22:03:15.474Z,15.60
2023-05-15T22:05:42.153Z,15.80
2023-05-15T22:08:08.732Z,15.80
2023-05-15T22:10:35.346Z,15.90
2023-05-15T22:13:01.910Z,15.90
2023-05-15T22:15:28.672Z,15.30
2023-05-15T22:17:55.241Z,15.30
2023-05-15T22:20:21.939Z,15.50
2023-05-15T22:22:48.526Z,15.30
2023-05-15T22:25:15.089Z,15.40
2023-05-15T22:27:41.686Z,15.60
2023-05-15T22:30:10.817Z,15.70
2023-05-15T22:32:37.856Z,15.60
2023-05-15T22:35:04.486Z,15.40
2023-05-15T22:37:31.033Z,15.50
2023-05-15T22:39:57.623Z,15.30
2023-05-15T22:42:24.190Z,15.60
2023-05-15T22:44:50.797Z,15.80
2023-05-15T22:47:19.853Z,15.90
2023-05-15T22:49:46.479Z,15.90
2023-05-15T22:52:14.093Z,15.80
2023-05-15T22:54:42.907Z,15.90
2023-05-15T22:57:10.537Z,15.90
2023-05-15T22:59:37.796Z,15.60
2023-05-15T23:02:04.408Z,15.10
2023-05-15T23:04:31.012Z,15.20
2023-05-15T23:06:57.563Z,15.10
2023-05-15T23:09:24.144Z,15.40
2023-05-15T23:11:50.692Z,15.60
2023-05-15T23:14:17.284Z,15.60
2023-05-15T23:16:44.688Z,15.70
2023-05-15T23:19:11.382Z,15.80
2023-05-15T23:21:37.963Z,15.60
2023-05-15T23:24:06.208Z,15.60
2023-05-15T23:26:32.820Z,15.70
2023-05-15T23:28:59.507Z,15.60
2023-05-15T23:31:26.386Z,15.50
2023-05-15T23:33:52.990Z,15.50
2023-05-15T23:36:19.575Z,15.50
2023-05-15T23:38:46.150Z,15.60
2023-05-15T23:41:13.185Z,15.60
2023-05-15T23:43:39.746Z,15.70
2023-05-15T23:46:06.409Z,15.70
2023-05-15T23:48:33.023Z,15.40
2023-05-15T23:50:59.620Z,15.40
2023-05-15T23:53:26.270Z,15.50
2023-05-15T23:55:52.826Z,15.40
2023-05-15T23:58:19.418Z,15.20
